sensor_id;sensor_type;location;lat;lon;timestamp;temperature;humidity
9329;DHT22;4703;48.748;19.142;2024-02-28T00:02:14;11.60;99.90
9329;DHT22;4703;48.748;19.142;2024-02-28T00:04:41;11.90;99.90
9329;DHT22;4703;48.748;19.142;2024-02-28T00:07:08;12.00;99.90
9329;DHT22;4703;48.748;19.142;2024-02-28T00:09:36;11.10;99.90
9329;DHT22;4703;48.748;19.142;2024-02-28T00:12:04;10.70;99.90
9329;DHT22;4703;48.748;19.142;2024-02-28T00:14:31;10.30;99.90
9329;DHT22;4703;48.748;19.142;2024-02-28T00:16:58;10.20;99.90
9329;DHT22;4703;48.748;19.142;2024-02-28T00:19:25;11.90;99.90
9329;DHT22;4703;48.748;19.142;2024-02-28T00:21:52;11.60;99.90
9329;DHT22;4703;48.748;19.142;2024-02-28T00:24:19;10.60;99.90
9329;DHT22;4703;48.748;19.142;2024-02-28T00:26:46;10.20;99.90
9329;DHT22;4703;48.748;19.142;2024-02-28T00:29:13;11.80;99.90
9329;DHT22;4703;48.748;19.142;2024-02-28T00:31:40;11.80;99.90
9329;DHT22;4703;48.748;19.142;2024-02-28T00:34:07;12.40;99.90
9329;DHT22;4703;48.748;19.142;2024-02-28T00:36:36;10.20;99.90
9329;DHT22;4703;48.748;19.142;2024-02-28T00:39:20;10.20;99.90
9329;DHT22;4703;48.748;19.142;2024-02-28T00:41:47;10.20;99.90
9329;DHT22;4703;48.748;19.142;2024-02-28T00:44:14;12.00;99.90
9329;DHT22;4703;48.748;19.142;2024-02-28T00:46:41;10.10;99.90
9329;DHT22;4703;48.748;19.142;2024-02-28T00:49:08;11.40;99.90
9329;DHT22;4703;48.748;19.142;2024-02-28T00:51:35;10.50;99.90
9329;DHT22;4703;48.748;19.142;2024-02-28T00:54:04;10.60;99.90
9329;DHT22;4703;48.748;19.142;2024-02-28T00:56:31;10.00;99.90
9329;DHT22;4703;48.748;19.142;2024-02-28T00:58:58;10.50;99.90
9329;DHT22;4703;48.748;19.142;2024-02-28T01:01:25;12.10;99.90
9329;DHT22;4703;48.748;19.142;2024-02-28T01:03:52;11.60;99.90
9329;DHT22;4703;48.748;19.142;2024-02-28T01:06:20;11.40;99.90
9329;DHT22;4703;48.748;19.142;2024-02-28T01:08:47;12.30;99.90
9329;DHT22;4703;48.748;19.142;2024-02-28T01:11:14;12.30;99.90
9329;DHT22;4703;48.748;19.142;2024-02-28T01:13:41;10.00;99.90
9329;DHT22;4703;48.748;19.142;2024-02-28T01:16:08;11.10;99.90
9329;DHT22;4703;48.748;19.142;2024-02-28T01:18:35;11.50;99.90
9329;DHT22;4703;48.748;19.142;2024-02-28T01:21:02;9.80;99.90
9329;DHT22;4703;48.748;19.142;2024-02-28T01:23:29;9.80;99.90
9329;DHT22;4703;48.748;19.142;2024-02-28T01:25:58;9.80;99.90
9329;DHT22;4703;48.748;19.142;2024-02-28T01:28:25;9.70;99.90
9329;DHT22;4703;48.748;19.142;2024-02-28T01:30:52;9.70;99.90
9329;DHT22;4703;48.748;19.142;2024-02-28T01:33:19;12.00;99.90
9329;DHT22;4703;48.748;19.142;2024-02-28T01:35:46;10.80;99.90
9329;DHT22;4703;48.748;19.142;2024-02-28T01:38:13;11.80;99.90
9329;DHT22;4703;48.748;19.142;2024-02-28T01:40:47;9.70;99.90
9329;DHT22;4703;48.748;19.142;2024-02-28T01:43:14;10.50;99.90
9329;DHT22;4703;48.748;19.142;2024-02-28T01:45:40;12.30;99.90
9329;DHT22;4703;48.748;19.142;2024-02-28T01:48:11;10.90;99.90
9329;DHT22;4703;48.748;19.142;2024-02-28T01:50:39;9.90;99.90
9329;DHT22;4703;48.748;19.142;2024-02-28T01:53:08;12.20;99.90
9329;DHT22;4703;48.748;19.142;2024-02-28T01:55:36;10.40;99.90
9329;DHT22;4703;48.748;19.142;2024-02-28T01:58:04;10.00;99.90
9329;DHT22;4703;48.748;19.142;2024-02-28T02:00:34;10.80;99.90
9329;DHT22;4703;48.748;19.142;2024-02-28T02:03:01;11.50;99.90
9329;DHT22;4703;48.748;19.142;2024-02-28T02:05:29;9.60;99.90
9329;DHT22;4703;48.748;19.142;2024-02-28T02:08:00;11.30;99.90
9329;DHT22;4703;48.748;19.142;2024-02-28T02:10:28;11.80;99.90
9329;DHT22;4703;48.748;19.142;2024-02-28T02:12:55;9.50;99.90
9329;DHT22;4703;48.748;19.142;2024-02-28T02:15:22;9.50;99.90
9329;DHT22;4703;48.748;19.142;2024-02-28T02:17:49;9.70;99.90
9329;DHT22;4703;48.748;19.142;2024-02-28T02:20:17;11.30;99.90
9329;DHT22;4703;48.748;19.142;2024-02-28T02:22:46;10.70;99.90
9329;DHT22;4703;48.748;19.142;2024-02-28T02:25:13;11.40;99.90
9329;DHT22;4703;48.748;19.142;2024-02-28T02:27:40;9.50;99.90
9329;DHT22;4703;48.748;19.142;2024-02-28T02:30:07;11.10;99.90
9329;DHT22;4703;48.748;19.142;2024-02-28T02:32:34;9.50;99.90
9329;DHT22;4703;48.748;19.142;2024-02-28T02:35:01;9.50;99.90
9329;DHT22;4703;48.748;19.142;2024-02-28T02:37:28;11.40;99.90
9329;DHT22;4703;48.748;19.142;2024-02-28T02:39:56;11.40;99.90
9329;DHT22;4703;48.748;19.142;2024-02-28T02:42:23;10.70;99.90
9329;DHT22;4703;48.748;19.142;2024-02-28T02:44:50;11.60;99.90
9329;DHT22;4703;48.748;19.142;2024-02-28T02:47:17;9.50;99.90
9329;DHT22;4703;48.748;19.142;2024-02-28T02:49:44;12.00;99.90
9329;DHT22;4703;48.748;19.142;2024-02-28T02:52:10;10.30;99.90
9329;DHT22;4703;48.748;19.142;2024-02-28T02:54:37;12.40;99.90
9329;DHT22;4703;48.748;19.142;2024-02-28T02:57:05;9.80;99.90
9329;DHT22;4703;48.748;19.142;2024-02-28T02:59:32;9.40;99.90
9329;DHT22;4703;48.748;19.142;2024-02-28T03:01:59;12.10;99.90
9329;DHT22;4703;48.748;19.142;2024-02-28T03:04:25;11.80;99.90
9329;DHT22;4703;48.748;19.142;2024-02-28T03:06:52;10.30;99.90
9329;DHT22;4703;48.748;19.142;2024-02-28T03:09:20;11.80;99.90
9329;DHT22;4703;48.748;19.142;2024-02-28T03:11:47;10.80;99.90
9329;DHT22;4703;48.748;19.142;2024-02-28T03:14:14;11.20;99.90
9329;DHT22;4703;48.748;19.142;2024-02-28T03:16:42;10.60;99.90
9329;DHT22;4703;48.748;19.142;2024-02-28T03:19:10;11.50;99.90
9329;DHT22;4703;48.748;19.142;2024-02-28T03:21:37;9.20;99.90
9329;DHT22;4703;48.748;19.142;2024-02-28T03:24:04;11.70;99.90
9329;DHT22;4703;48.748;19.142;2024-02-28T03:26:31;9.20;99.90
9329;DHT22;4703;48.748;19.142;2024-02-28T03:28:59;11.90;99.90
9329;DHT22;4703;48.748;19.142;2024-02-28T03:31:27;9.20;99.90
9329;DHT22;4703;48.748;19.142;2024-02-28T03:33:54;10.40;99.90
9329;DHT22;4703;48.748;19.142;2024-02-28T03:36:21;9.20;99.90
9329;DHT22;4703;48.748;19.142;2024-02-28T03:38:48;10.70;99.90
9329;DHT22;4703;48.748;19.142;2024-02-28T03:41:15;9.20;99.90
9329;DHT22;4703;48.748;19.142;2024-02-28T03:43:42;10.10;99.90
9329;DHT22;4703;48.748;19.142;2024-02-28T03:46:09;10.40;99.90
9329;DHT22;4703;48.748;19.142;2024-02-28T03:48:36;9.40;99.90
9329;DHT22;4703;48.748;19.142;2024-02-28T03:51:04;10.80;99.90
9329;DHT22;4703;48.748;19.142;2024-02-28T03:53:31;9.30;99.90
9329;DHT22;4703;48.748;19.142;2024-02-28T03:55:58;10.80;99.90
9329;DHT22;4703;48.748;19.142;2024-02-28T03:58:25;11.90;99.90
9329;DHT22;4703;48.748;19.142;2024-02-28T04:00:52;10.80;99.90
9329;DHT22;4703;48.748;19.142;2024-02-28T04:03:20;11.80;99.90
9329;DHT22;4703;48.748;19.142;2024-02-28T04:05:47;10.80;99.90
9329;DHT22;4703;48.748;19.142;2024-02-28T04:08:13;9.20;99.90
9329;DHT22;4703;48.748;19.142;2024-02-28T04:10:40;11.60;99.90
9329;DHT22;4703;48.748;19.142;2024-02-28T04:13:07;11.70;99.90
9329;DHT22;4703;48.748;19.142;2024-02-28T04:15:35;9.90;99.90
9329;DHT22;4703;48.748;19.142;2024-02-28T04:18:02;11.70;99.90
9329;DHT22;4703;48.748;19.142;2024-02-28T04:20:30;10.10;99.90
9329;DHT22;4703;48.748;19.142;2024-02-28T04:22:57;9.20;99.90
9329;DHT22;4703;48.748;19.142;2024-02-28T04:25:24;10.30;99.90
9329;DHT22;4703;48.748;19.142;2024-02-28T04:27:51;10.80;99.90
9329;DHT22;4703;48.748;19.142;2024-02-28T04:30:18;11.50;99.90
9329;DHT22;4703;48.748;19.142;2024-02-28T04:32:45;9.20;99.90
9329;DHT22;4703;48.748;19.142;2024-02-28T04:35:12;9.20;99.90
9329;DHT22;4703;48.748;19.142;2024-02-28T04:37:42;9.10;99.90
9329;DHT22;4703;48.748;19.142;2024-02-28T04:40:09;9.10;99.90
9329;DHT22;4703;48.748;19.142;2024-02-28T04:42:37;9.20;99.90
9329;DHT22;4703;48.748;19.142;2024-02-28T04:45:04;9.10;99.90
9329;DHT22;4703;48.748;19.142;2024-02-28T04:47:32;9.10;99.90
9329;DHT22;4703;48.748;19.142;2024-02-28T04:50:09;9.10;99.90
9329;DHT22;4703;48.748;19.142;2024-02-28T04:52:37;9.10;99.90
9329;DHT22;4703;48.748;19.142;2024-02-28T04:55:05;9.50;99.90
9329;DHT22;4703;48.748;19.142;2024-02-28T04:57:32;9.10;99.90
9329;DHT22;4703;48.748;19.142;2024-02-28T04:59:59;10.60;99.90
9329;DHT22;4703;48.748;19.142;2024-02-28T05:02:26;9.20;99.90
9329;DHT22;4703;48.748;19.142;2024-02-28T05:04:53;10.30;99.90
9329;DHT22;4703;48.748;19.142;2024-02-28T05:07:20;9.10;99.90
9329;DHT22;4703;48.748;19.142;2024-02-28T05:09:47;10.40;99.90
9329;DHT22;4703;48.748;19.142;2024-02-28T05:12:14;9.20;99.90
9329;DHT22;4703;48.748;19.142;2024-02-28T05:14:41;10.80;99.90
9329;DHT22;4703;48.748;19.142;2024-02-28T05:17:08;10.50;99.90
9329;DHT22;4703;48.748;19.142;2024-02-28T05:19:35;11.10;99.90
9329;DHT22;4703;48.748;19.142;2024-02-28T05:22:02;11.60;99.90
9329;DHT22;4703;48.748;19.142;2024-02-28T05:24:29;9.00;99.90
9329;DHT22;4703;48.748;19.142;2024-02-28T05:26:58;10.60;99.90
9329;DHT22;4703;48.748;19.142;2024-02-28T05:29:25;10.50;99.90
9329;DHT22;4703;48.748;19.142;2024-02-28T05:31:52;11.50;99.90
9329;DHT22;4703;48.748;19.142;2024-02-28T05:34:19;10.50;99.90
9329;DHT22;4703;48.748;19.142;2024-02-28T05:36:46;10.10;99.90
9329;DHT22;4703;48.748;19.142;2024-02-28T05:39:13;10.00;99.90
9329;DHT22;4703;48.748;19.142;2024-02-28T05:41:40;11.20;99.90
9329;DHT22;4703;48.748;19.142;2024-02-28T05:44:07;10.50;99.90
9329;DHT22;4703;48.748;19.142;2024-02-28T05:46:35;9.00;99.90
9329;DHT22;4703;48.748;19.142;2024-02-28T05:49:04;10.00;99.90
9329;DHT22;4703;48.748;19.142;2024-02-28T05:51:31;9.90;99.90
9329;DHT22;4703;48.748;19.142;2024-02-28T05:53:58;9.00;99.90
9329;DHT22;4703;48.748;19.142;2024-02-28T05:56:25;10.40;99.90
9329;DHT22;4703;48.748;19.142;2024-02-28T05:58:52;11.00;99.90
9329;DHT22;4703;48.748;19.142;2024-02-28T06:01:19;10.80;99.90
9329;DHT22;4703;48.748;19.142;2024-02-28T06:03:50;11.30;99.90
9329;DHT22;4703;48.748;19.142;2024-02-28T06:06:17;10.60;99.90
9329;DHT22;4703;48.748;19.142;2024-02-28T06:08:45;9.00;99.90
9329;DHT22;4703;48.748;19.142;2024-02-28T06:11:12;9.00;99.90
9329;DHT22;4703;48.748;19.142;2024-02-28T06:13:45;10.90;99.90
9329;DHT22;4703;48.748;19.142;2024-02-28T06:16:15;9.00;99.90
9329;DHT22;4703;48.748;19.142;2024-02-28T06:18:42;9.90;99.90
9329;DHT22;4703;48.748;19.142;2024-02-28T06:21:09;10.70;99.90
9329;DHT22;4703;48.748;19.142;2024-02-28T06:23:36;10.70;99.90
9329;DHT22;4703;48.748;19.142;2024-02-28T06:26:03;10.90;99.90
9329;DHT22;4703;48.748;19.142;2024-02-28T06:28:30;11.70;99.90
9329;DHT22;4703;48.748;19.142;2024-02-28T06:30:59;9.10;99.90
9329;DHT22;4703;48.748;19.142;2024-02-28T06:33:26;9.10;99.90
9329;DHT22;4703;48.748;19.142;2024-02-28T06:35:53;10.90;99.90
9329;DHT22;4703;48.748;19.142;2024-02-28T06:38:20;11.10;99.90
9329;DHT22;4703;48.748;19.142;2024-02-28T06:40:47;11.30;99.90
9329;DHT22;4703;48.748;19.142;2024-02-28T06:43:14;11.70;99.90
9329;DHT22;4703;48.748;19.142;2024-02-28T06:45:42;10.80;99.90
9329;DHT22;4703;48.748;19.142;2024-02-28T06:48:09;10.80;99.90
9329;DHT22;4703;48.748;19.142;2024-02-28T06:50:36;11.30;99.90
9329;DHT22;4703;48.748;19.142;2024-02-28T06:53:03;11.00;99.90
9329;DHT22;4703;48.748;19.142;2024-02-28T06:55:30;10.40;99.90
9329;DHT22;4703;48.748;19.142;2024-02-28T06:57:57;11.50;99.90
9329;DHT22;4703;48.748;19.142;2024-02-28T07:00:24;11.00;99.90
9329;DHT22;4703;48.748;19.142;2024-02-28T07:02:52;11.80;99.90
9329;DHT22;4703;48.748;19.142;2024-02-28T07:05:20;10.90;99.90
9329;DHT22;4703;48.748;19.142;2024-02-28T07:07:48;9.40;99.90
9329;DHT22;4703;48.748;19.142;2024-02-28T07:10:15;11.40;99.90
9329;DHT22;4703;48.748;19.142;2024-02-28T07:12:42;9.50;99.90
9329;DHT22;4703;48.748;19.142;2024-02-28T07:15:09;11.60;99.90
9329;DHT22;4703;48.748;19.142;2024-02-28T07:17:36;12.40;99.90
9329;DHT22;4703;48.748;19.142;2024-02-28T07:20:03;11.10;99.90
9329;DHT22;4703;48.748;19.142;2024-02-28T07:22:31;9.60;99.90
9329;DHT22;4703;48.748;19.142;2024-02-28T07:24:58;11.30;99.90
9329;DHT22;4703;48.748;19.142;2024-02-28T07:27:25;11.30;99.90
9329;DHT22;4703;48.748;19.142;2024-02-28T07:29:52;11.70;99.90
9329;DHT22;4703;48.748;19.142;2024-02-28T07:32:19;9.70;99.90
9329;DHT22;4703;48.748;19.142;2024-02-28T07:34:46;11.20;99.90
9329;DHT22;4703;48.748;19.142;2024-02-28T07:37:13;9.80;99.90
9329;DHT22;4703;48.748;19.142;2024-02-28T07:39:40;12.40;99.90
9329;DHT22;4703;48.748;19.142;2024-02-28T07:54:48;9.80;99.90
9329;DHT22;4703;48.748;19.142;2024-02-28T07:57:15;10.10;99.90
9329;DHT22;4703;48.748;19.142;2024-02-28T07:59:43;11.80;99.90
9329;DHT22;4703;48.748;19.142;2024-02-28T08:02:10;11.90;99.90
9329;DHT22;4703;48.748;19.142;2024-02-28T08:04:39;11.60;99.90
9329;DHT22;4703;48.748;19.142;2024-02-28T08:07:06;12.40;99.90
9329;DHT22;4703;48.748;19.142;2024-02-28T08:09:33;12.60;99.90
9329;DHT22;4703;48.748;19.142;2024-02-28T08:12:01;11.60;99.90
9329;DHT22;4703;48.748;19.142;2024-02-28T08:14:28;10.30;99.90
9329;DHT22;4703;48.748;19.142;2024-02-28T08:16:55;11.40;99.90
9329;DHT22;4703;48.748;19.142;2024-02-28T08:19:22;10.40;99.90
9329;DHT22;4703;48.748;19.142;2024-02-28T08:21:49;10.40;99.90
9329;DHT22;4703;48.748;19.142;2024-02-28T08:24:16;12.80;99.90
9329;DHT22;4703;48.748;19.142;2024-02-28T08:26:43;10.90;99.90
9329;DHT22;4703;48.748;19.142;2024-02-28T08:29:10;10.60;99.90
9329;DHT22;4703;48.748;19.142;2024-02-28T08:31:42;12.00;99.90
9329;DHT22;4703;48.748;19.142;2024-02-28T08:34:10;11.30;99.90
9329;DHT22;4703;48.748;19.142;2024-02-28T08:36:37;12.30;99.90
9329;DHT22;4703;48.748;19.142;2024-02-28T08:39:04;10.90;99.90
9329;DHT22;4703;48.748;19.142;2024-02-28T08:41:35;10.90;99.90
9329;DHT22;4703;48.748;19.142;2024-02-28T08:44:02;12.40;99.90
9329;DHT22;4703;48.748;19.142;2024-02-28T08:46:30;11.10;99.90
9329;DHT22;4703;48.748;19.142;2024-02-28T08:48:57;11.20;99.90
9329;DHT22;4703;48.748;19.142;2024-02-28T08:51:24;12.10;99.90
9329;DHT22;4703;48.748;19.142;2024-02-28T08:53:51;12.30;99.90
9329;DHT22;4703;48.748;19.142;2024-02-28T08:56:20;12.50;99.90
9329;DHT22;4703;48.748;19.142;2024-02-28T08:58:47;12.80;99.90
9329;DHT22;4703;48.748;19.142;2024-02-28T09:01:15;11.70;99.90
9329;DHT22;4703;48.748;19.142;2024-02-28T09:03:42;12.80;99.90
9329;DHT22;4703;48.748;19.142;2024-02-28T09:06:10;11.90;99.90
9329;DHT22;4703;48.748;19.142;2024-02-28T09:08:37;12.00;99.90
9329;DHT22;4703;48.748;19.142;2024-02-28T09:11:04;12.00;99.90
9329;DHT22;4703;48.748;19.142;2024-02-28T09:13:32;12.00;99.90
9329;DHT22;4703;48.748;19.142;2024-02-28T09:15:59;13.30;99.90
9329;DHT22;4703;48.748;19.142;2024-02-28T09:18:26;12.10;99.90
9329;DHT22;4703;48.748;19.142;2024-02-28T09:20:53;13.10;99.90
9329;DHT22;4703;48.748;19.142;2024-02-28T09:23:20;12.90;99.90
9329;DHT22;4703;48.748;19.142;2024-02-28T09:25:47;12.60;99.90
9329;DHT22;4703;48.748;19.142;2024-02-28T09:28:14;13.10;99.90
9329;DHT22;4703;48.748;19.142;2024-02-28T09:30:42;12.90;99.90
9329;DHT22;4703;48.748;19.142;2024-02-28T09:33:18;13.10;99.90
9329;DHT22;4703;48.748;19.142;2024-02-28T09:35:46;13.80;99.90
9329;DHT22;4703;48.748;19.142;2024-02-28T09:38:14;14.00;99.90
9329;DHT22;4703;48.748;19.142;2024-02-28T09:40:41;13.60;99.90
9329;DHT22;4703;48.748;19.142;2024-02-28T09:43:59;13.50;99.90
9329;DHT22;4703;48.748;19.142;2024-02-28T09:46:08;13.60;99.90
9329;DHT22;4703;48.748;19.142;2024-02-28T09:48:39;15.00;99.90
9329;DHT22;4703;48.748;19.142;2024-02-28T09:51:09;12.10;99.90
9329;DHT22;4703;48.748;19.142;2024-02-28T09:53:39;13.50;99.90
9329;DHT22;4703;48.748;19.142;2024-02-28T09:56:07;13.40;99.90
9329;DHT22;4703;48.748;19.142;2024-02-28T09:58:34;13.40;99.90
9329;DHT22;4703;48.748;19.142;2024-02-28T10:01:02;13.30;99.90
9329;DHT22;4703;48.748;19.142;2024-02-28T10:03:32;13.30;99.90
9329;DHT22;4703;48.748;19.142;2024-02-28T10:05:59;13.30;99.90
9329;DHT22;4703;48.748;19.142;2024-02-28T10:08:31;13.30;99.90
9329;DHT22;4703;48.748;19.142;2024-02-28T10:10:59;13.30;99.90
9329;DHT22;4703;48.748;19.142;2024-02-28T10:13:26;13.40;99.90
9329;DHT22;4703;48.748;19.142;2024-02-28T10:15:54;14.40;99.90
9329;DHT22;4703;48.748;19.142;2024-02-28T10:18:21;13.50;99.90
9329;DHT22;4703;48.748;19.142;2024-02-28T10:20:48;11.50;99.90
9329;DHT22;4703;48.748;19.142;2024-02-28T10:23:16;13.40;99.90
9329;DHT22;4703;48.748;19.142;2024-02-28T10:25:47;13.50;99.90
9329;DHT22;4703;48.748;19.142;2024-02-28T10:28:23;14.50;99.90
9329;DHT22;4703;48.748;19.142;2024-02-28T10:30:52;13.80;99.90
9329;DHT22;4703;48.748;19.142;2024-02-28T10:33:20;13.90;99.90
9329;DHT22;4703;48.748;19.142;2024-02-28T10:35:50;14.40;99.90
9329;DHT22;4703;48.748;19.142;2024-02-28T10:38:20;14.40;99.90
9329;DHT22;4703;48.748;19.142;2024-02-28T10:40:48;14.60;99.90
9329;DHT22;4703;48.748;19.142;2024-02-28T10:43:16;14.50;99.90
9329;DHT22;4703;48.748;19.142;2024-02-28T10:45:44;15.00;99.90
9329;DHT22;4703;48.748;19.142;2024-02-28T11:02:32;15.10;99.90
9329;DHT22;4703;48.748;19.142;2024-02-28T11:04:59;15.20;99.90
9329;DHT22;4703;48.748;19.142;2024-02-28T11:07:30;15.40;99.90
9329;DHT22;4703;48.748;19.142;2024-02-28T11:10:05;15.40;99.90
9329;DHT22;4703;48.748;19.142;2024-02-28T11:12:33;15.50;99.90
9329;DHT22;4703;48.748;19.142;2024-02-28T11:15:01;15.60;99.90
9329;DHT22;4703;48.748;19.142;2024-02-28T11:17:33;15.80;99.90
9329;DHT22;4703;48.748;19.142;2024-02-28T11:20:11;16.00;99.90
9329;DHT22;4703;48.748;19.142;2024-02-28T11:22:39;16.20;99.90
9329;DHT22;4703;48.748;19.142;2024-02-28T11:25:07;16.40;99.90
9329;DHT22;4703;48.748;19.142;2024-02-28T11:27:45;16.50;99.90
9329;DHT22;4703;48.748;19.142;2024-02-28T11:30:14;16.50;99.60
9329;DHT22;4703;48.748;19.142;2024-02-28T11:32:42;16.60;99.70
9329;DHT22;4703;48.748;19.142;2024-02-28T11:35:10;16.70;99.50
9329;DHT22;4703;48.748;19.142;2024-02-28T11:37:38;16.70;98.30
9329;DHT22;4703;48.748;19.142;2024-02-28T11:40:09;16.70;98.90
9329;DHT22;4703;48.748;19.142;2024-02-28T11:42:38;16.60;98.70
9329;DHT22;4703;48.748;19.142;2024-02-28T11:45:09;16.50;98.60
9329;DHT22;4703;48.748;19.142;2024-02-28T11:47:36;16.50;98.50
9329;DHT22;4703;48.748;19.142;2024-02-28T11:50:04;16.50;98.10
9329;DHT22;4703;48.748;19.142;2024-02-28T11:52:36;16.40;97.90
9329;DHT22;4703;48.748;19.142;2024-02-28T11:55:04;16.40;98.40
9329;DHT22;4703;48.748;19.142;2024-02-28T11:57:31;16.30;98.90
9329;DHT22;4703;48.748;19.142;2024-02-28T12:00:07;16.30;98.40
9329;DHT22;4703;48.748;19.142;2024-02-28T12:02:41;16.30;98.50
9329;DHT22;4703;48.748;19.142;2024-02-28T12:05:08;16.30;98.00
9329;DHT22;4703;48.748;19.142;2024-02-28T12:07:36;16.30;98.10
9329;DHT22;4703;48.748;19.142;2024-02-28T12:10:04;16.20;97.70
9329;DHT22;4703;48.748;19.142;2024-02-28T12:12:31;16.20;98.30
9329;DHT22;4703;48.748;19.142;2024-02-28T12:14:59;16.10;97.80
9329;DHT22;4703;48.748;19.142;2024-02-28T12:17:27;16.00;97.70
9329;DHT22;4703;48.748;19.142;2024-02-28T12:19:54;16.00;98.10
9329;DHT22;4703;48.748;19.142;2024-02-28T12:22:22;15.90;97.80
9329;DHT22;4703;48.748;19.142;2024-02-28T12:24:49;15.80;98.60
9329;DHT22;4703;48.748;19.142;2024-02-28T12:27:16;15.80;98.40
9329;DHT22;4703;48.748;19.142;2024-02-28T12:29:43;15.80;98.40
9329;DHT22;4703;48.748;19.142;2024-02-28T12:32:11;15.60;98.70
9329;DHT22;4703;48.748;19.142;2024-02-28T12:34:38;16.20;98.90
9329;DHT22;4703;48.748;19.142;2024-02-28T12:37:05;15.50;98.40
9329;DHT22;4703;48.748;19.142;2024-02-28T12:39:33;15.40;98.70
9329;DHT22;4703;48.748;19.142;2024-02-28T12:42:01;15.40;98.30
9329;DHT22;4703;48.748;19.142;2024-02-28T12:44:29;15.30;98.30
9329;DHT22;4703;48.748;19.142;2024-02-28T12:46:56;15.20;98.20
9329;DHT22;4703;48.748;19.142;2024-02-28T12:49:22;15.20;98.50
9329;DHT22;4703;48.748;19.142;2024-02-28T12:51:50;15.60;98.70
9329;DHT22;4703;48.748;19.142;2024-02-28T12:54:18;15.70;98.50
9329;DHT22;4703;48.748;19.142;2024-02-28T12:56:48;15.40;98.40
9329;DHT22;4703;48.748;19.142;2024-02-28T12:59:15;15.40;98.30
9329;DHT22;4703;48.748;19.142;2024-02-28T13:01:42;15.50;98.20
9329;DHT22;4703;48.748;19.142;2024-02-28T13:04:10;15.50;98.00
9329;DHT22;4703;48.748;19.142;2024-02-28T13:06:38;15.50;98.50
9329;DHT22;4703;48.748;19.142;2024-02-28T13:09:05;15.60;98.10
9329;DHT22;4703;48.748;19.142;2024-02-28T13:11:39;15.70;97.80
9329;DHT22;4703;48.748;19.142;2024-02-28T13:14:07;15.80;97.70
9329;DHT22;4703;48.748;19.142;2024-02-28T13:16:35;15.90;98.00
9329;DHT22;4703;48.748;19.142;2024-02-28T13:19:02;15.90;97.70
9329;DHT22;4703;48.748;19.142;2024-02-28T13:21:34;15.90;97.50
9329;DHT22;4703;48.748;19.142;2024-02-28T13:24:01;15.90;97.30
9329;DHT22;4703;48.748;19.142;2024-02-28T13:26:30;15.90;97.20
9329;DHT22;4703;48.748;19.142;2024-02-28T13:28:57;16.00;97.60
9329;DHT22;4703;48.748;19.142;2024-02-28T13:31:24;16.10;97.40
9329;DHT22;4703;48.748;19.142;2024-02-28T13:33:51;16.00;97.70
9329;DHT22;4703;48.748;19.142;2024-02-28T13:36:18;16.10;97.80
9329;DHT22;4703;48.748;19.142;2024-02-28T13:38:48;16.10;98.00
9329;DHT22;4703;48.748;19.142;2024-02-28T13:41:15;16.20;97.80
9329;DHT22;4703;48.748;19.142;2024-02-28T13:43:43;16.20;97.80
9329;DHT22;4703;48.748;19.142;2024-02-28T13:46:10;16.20;98.40
9329;DHT22;4703;48.748;19.142;2024-02-28T13:48:41;16.30;98.60
9329;DHT22;4703;48.748;19.142;2024-02-28T13:51:08;16.40;98.80
9329;DHT22;4703;48.748;19.142;2024-02-28T13:53:35;16.50;97.90
9329;DHT22;4703;48.748;19.142;2024-02-28T13:56:03;16.50;97.70
9329;DHT22;4703;48.748;19.142;2024-02-28T13:58:32;16.60;97.80
9329;DHT22;4703;48.748;19.142;2024-02-28T14:01:09;16.80;97.00
9329;DHT22;4703;48.748;19.142;2024-02-28T14:03:37;16.90;96.30
9329;DHT22;4703;48.748;19.142;2024-02-28T14:06:08;17.20;96.80
9329;DHT22;4703;48.748;19.142;2024-02-28T14:08:35;17.00;96.70
9329;DHT22;4703;48.748;19.142;2024-02-28T14:11:02;17.00;96.70
9329;DHT22;4703;48.748;19.142;2024-02-28T14:13:30;17.10;96.60
9329;DHT22;4703;48.748;19.142;2024-02-28T14:15:58;17.20;96.70
9329;DHT22;4703;48.748;19.142;2024-02-28T14:18:25;17.20;96.90
9329;DHT22;4703;48.748;19.142;2024-02-28T14:20:52;17.00;97.20
9329;DHT22;4703;48.748;19.142;2024-02-28T14:23:19;17.00;97.50
9329;DHT22;4703;48.748;19.142;2024-02-28T14:25:47;16.90;96.80
9329;DHT22;4703;48.748;19.142;2024-02-28T14:28:14;16.90;96.30
9329;DHT22;4703;48.748;19.142;2024-02-28T14:30:41;16.70;96.30
9329;DHT22;4703;48.748;19.142;2024-02-28T14:33:09;16.60;96.00
9329;DHT22;4703;48.748;19.142;2024-02-28T14:35:40;16.60;96.30
9329;DHT22;4703;48.748;19.142;2024-02-28T14:38:08;16.40;96.50
9329;DHT22;4703;48.748;19.142;2024-02-28T14:40:35;16.40;96.70
9329;DHT22;4703;48.748;19.142;2024-02-28T14:43:02;16.30;96.60
9329;DHT22;4703;48.748;19.142;2024-02-28T14:45:29;16.20;96.80
9329;DHT22;4703;48.748;19.142;2024-02-28T14:47:58;16.20;97.10
9329;DHT22;4703;48.748;19.142;2024-02-28T14:50:25;16.30;97.30
9329;DHT22;4703;48.748;19.142;2024-02-28T14:52:53;16.30;97.20
9329;DHT22;4703;48.748;19.142;2024-02-28T14:55:19;16.40;96.70
9329;DHT22;4703;48.748;19.142;2024-02-28T14:57:46;16.50;96.60
9329;DHT22;4703;48.748;19.142;2024-02-28T15:00:14;16.50;97.30
9329;DHT22;4703;48.748;19.142;2024-02-28T15:02:42;16.50;96.80
9329;DHT22;4703;48.748;19.142;2024-02-28T15:05:12;16.40;96.50
9329;DHT22;4703;48.748;19.142;2024-02-28T15:07:39;16.40;96.30
9329;DHT22;4703;48.748;19.142;2024-02-28T15:10:07;16.30;95.90
9329;DHT22;4703;48.748;19.142;2024-02-28T15:12:34;16.60;96.50
9329;DHT22;4703;48.748;19.142;2024-02-28T15:15:04;16.10;96.30
9329;DHT22;4703;48.748;19.142;2024-02-28T15:17:32;16.00;96.50
9329;DHT22;4703;48.748;19.142;2024-02-28T15:20:00;16.00;96.90
9329;DHT22;4703;48.748;19.142;2024-02-28T15:22:31;15.90;96.80
9329;DHT22;4703;48.748;19.142;2024-02-28T15:25:00;15.80;96.70
9329;DHT22;4703;48.748;19.142;2024-02-28T15:27:27;15.70;96.70
9329;DHT22;4703;48.748;19.142;2024-02-28T15:29:55;15.60;97.10
9329;DHT22;4703;48.748;19.142;2024-02-28T15:32:23;17.00;97.70
9329;DHT22;4703;48.748;19.142;2024-02-28T15:34:50;15.60;97.40
9329;DHT22;4703;48.748;19.142;2024-02-28T15:37:18;15.50;97.60
9329;DHT22;4703;48.748;19.142;2024-02-28T15:39:45;15.50;98.10
9329;DHT22;4703;48.748;19.142;2024-02-28T15:42:13;15.40;97.50
9329;DHT22;4703;48.748;19.142;2024-02-28T15:44:40;15.30;98.20
9329;DHT22;4703;48.748;19.142;2024-02-28T15:47:07;15.40;98.40
9329;DHT22;4703;48.748;19.142;2024-02-28T15:49:36;15.10;98.60
9329;DHT22;4703;48.748;19.142;2024-02-28T15:52:10;15.00;98.30
9329;DHT22;4703;48.748;19.142;2024-02-28T15:54:37;15.40;98.80
9329;DHT22;4703;48.748;19.142;2024-02-28T15:57:08;15.10;98.50
9329;DHT22;4703;48.748;19.142;2024-02-28T15:59:36;14.80;98.60
9329;DHT22;4703;48.748;19.142;2024-02-28T16:02:05;14.60;99.00
9329;DHT22;4703;48.748;19.142;2024-02-28T16:04:33;14.70;99.50
9329;DHT22;4703;48.748;19.142;2024-02-28T16:07:01;14.60;99.70
9329;DHT22;4703;48.748;19.142;2024-02-28T16:09:29;14.60;99.70
9329;DHT22;4703;48.748;19.142;2024-02-28T16:11:57;14.50;99.90
9329;DHT22;4703;48.748;19.142;2024-02-28T16:14:24;14.60;99.90
9329;DHT22;4703;48.748;19.142;2024-02-28T16:16:51;14.70;99.90
9329;DHT22;4703;48.748;19.142;2024-02-28T16:19:18;14.80;99.90